Time;durP1;ratioP1;P1;durP2;ratioP2;P2;SDS_P1;SDS_P2;PMS_P1;PMS_P2;Temp;Humidity;BMP_temperature;BMP_pressure;BME280_temperature;BME280_humidity;BME280_pressure;Samples;Min_cycle;Max_cycle;Signal;HPM_P1;HPM_P2
2022/12/18 00:00:42;;;;;;;;;;;;;;;0.81;63.74;102704.50;4996204;28;19968;-69
2022/12/18 00:03:07;;;;;;;;;;;;;;;0.80;63.93;102700.97;4998035;28;20408;-69
2022/12/18 00:05:32;;;;;;;;;;;;;;;0.79;63.86;102693.97;4996181;28;20008;-73
2022/12/18 00:07:58;;;;;;;;;;;;;;;0.78;63.84;102689.66;4997257;28;20358;-70
2022/12/18 00:10:23;;;;;;;;;;;;;;;0.78;63.88;102696.75;4996223;28;19922;-69
2022/12/18 00:12:48;;;;;;;;;;;;;;;0.77;63.63;102690.59;4997652;28;19922;-71
2022/12/18 00:15:14;;;;;;;;;;;;;;;0.77;63.87;102693.25;4997246;28;19926;-71
2022/12/18 00:17:39;;;;;;;;;;;;;;;0.78;63.78;102696.75;4995718;28;19972;-69
2022/12/18 00:20:04;;;;;;;;;;;;;;;0.76;63.78;102682.78;4979744;28;19917;-69
2022/12/18 00:22:30;;;;;;;;;;;;;;;0.76;63.81;102686.28;4997146;28;19914;-70
2022/12/18 00:24:55;;;;;;;;;;;;;;;0.75;63.79;102687.22;4996760;28;19921;-70
2022/12/18 00:27:20;;;;;;;;;;;;;;;0.74;63.66;102676.72;4979716;28;20358;-70
2022/12/18 00:29:45;;;;;;;;;;;;;;;0.72;63.57;102676.84;4997091;28;19968;-70
2022/12/18 00:32:11;;;;;;;;;;;;;;;0.72;63.64;102673.34;4996687;28;19922;-70
2022/12/18 00:34:36;;;;;;;;;;;;;;;0.71;63.40;102672.53;4997187;28;19925;-72
2022/12/18 00:37:01;;;;;;;;;;;;;;;0.71;63.41;102664.53;4997102;28;19914;-69
2022/12/18 00:39:26;;;;;;;;;;;;;;;0.69;63.75;102661.16;4996780;28;19913;-69
2022/12/18 00:44:35;;;;;;;;;;;;;;;0.67;63.71;102665.75;4995853;28;19925;-72
2022/12/18 00:47:01;;;;;;;;;;;;;;;0.67;63.65;102670.25;4996591;28;19918;-69
2022/12/18 00:49:26;;;;;;;;;;;;;;;0.67;63.55;102662.25;4995366;28;19941;-70
2022/12/18 00:51:51;;;;;;;;;;;;;;;0.66;63.37;102665.91;4996546;28;19918;-70
2022/12/18 00:54:17;;;;;;;;;;;;;;;0.64;63.42;102655.38;4996571;28;19918;-69
2022/12/18 00:56:42;;;;;;;;;;;;;;;0.63;63.63;102662.53;4995180;28;19918;-69
2022/12/18 00:59:07;;;;;;;;;;;;;;;0.63;63.62;102662.53;4995492;28;19969;-69
2022/12/18 01:01:33;;;;;;;;;;;;;;;0.61;63.60;102664.47;4996658;28;20450;-69
2022/12/18 01:03:59;;;;;;;;;;;;;;;0.62;63.61;102665.31;4996783;28;20012;-69
2022/12/18 01:06:25;;;;;;;;;;;;;;;0.59;63.55;102666.41;4996266;28;19920;-69
2022/12/18 01:08:50;;;;;;;;;;;;;;;0.58;63.62;102675.38;4995903;28;19996;-70
2022/12/18 01:11:17;;;;;;;;;;;;;;;0.58;63.49;102691.34;4996198;28;19917;-69
2022/12/18 01:13:42;;;;;;;;;;;;;;;0.56;63.31;102687.13;4996407;28;19983;-70
2022/12/18 01:16:08;;;;;;;;;;;;;;;0.57;63.50;102689.63;4996193;28;20367;-70
2022/12/18 01:18:34;;;;;;;;;;;;;;;0.55;63.43;102686.25;4996135;28;19918;-70
2022/12/18 01:20:59;;;;;;;;;;;;;;;0.55;63.39;102677.44;4995013;28;20312;-70
2022/12/18 01:23:24;;;;;;;;;;;;;;;0.53;63.43;102684.69;4996347;28;19917;-70
2022/12/18 01:25:49;;;;;;;;;;;;;;;0.52;63.43;102681.19;4994943;28;19914;-69
2022/12/18 01:28:15;;;;;;;;;;;;;;;0.51;63.04;102674.19;4994158;28;19961;-70
2022/12/18 01:30:40;;;;;;;;;;;;;;;0.51;63.36;102676.03;4995444;28;19968;-72
2022/12/18 01:33:05;;;;;;;;;;;;;;;0.50;63.12;102680.47;4994321;28;20366;-70
2022/12/18 01:35:30;;;;;;;;;;;;;;;0.48;63.28;102674.47;4996290;28;19936;-70
2022/12/18 01:37:56;;;;;;;;;;;;;;;0.47;63.00;102674.59;4995947;28;19921;-70
2022/12/18 01:40:21;;;;;;;;;;;;;;;0.45;63.01;102677.34;4995382;28;19917;-70
2022/12/18 01:42:53;;;;;;;;;;;;;;;0.45;62.92;102673.88;4995036;28;20004;-70
2022/12/18 01:45:18;;;;;;;;;;;;;;;0.45;63.10;102665.88;4995651;28;19921;-69
2022/12/18 01:47:43;;;;;;;;;;;;;;;0.43;63.09;102666.88;4994959;28;19914;-68
2022/12/18 01:50:11;;;;;;;;;;;;;;;0.42;63.09;102665.16;4994745;28;19913;-70
2022/12/18 01:52:40;;;;;;;;;;;;;;;0.41;63.13;102667.97;4995442;28;19921;-69
2022/12/18 01:55:06;;;;;;;;;;;;;;;0.40;63.11;102667.13;4995795;28;20377;-69
2022/12/18 01:57:31;;;;;;;;;;;;;;;0.39;62.93;102665.44;4995607;28;19913;-69
2022/12/18 01:59:59;;;;;;;;;;;;;;;0.38;62.68;102669.06;4993680;28;20142;-72
2022/12/18 02:02:26;;;;;;;;;;;;;;;0.37;62.80;102666.53;4995478;28;19914;-71
2022/12/18 02:04:51;;;;;;;;;;;;;;;0.36;62.84;102667.50;4993911;28;19920;-70
2022/12/18 02:07:25;;;;;;;;;;;;;;;0.35;62.86;102668.47;4993776;28;19917;-70
2022/12/18 02:09:57;;;;;;;;;;;;;;;0.34;62.95;102669.44;4995420;28;19921;-70
2022/12/18 02:12:30;;;;;;;;;;;;;;;0.34;62.78;102674.75;4994834;28;19961;-71
2022/12/18 02:15:00;;;;;;;;;;;;;;;0.33;62.86;102675.75;4995291;28;19936;-69
2022/12/18 02:17:32;;;;;;;;;;;;;;;0.31;62.71;102675.88;4995051;28;19914;-69
2022/12/18 02:19:57;;;;;;;;;;;;;;;0.31;62.76;102675.88;4994978;28;19913;-69
2022/12/18 02:22:42;;;;;;;;;;;;;;;0.29;62.46;102669.00;4994665;28;19920;-69
2022/12/18 02:25:26;;;;;;;;;;;;;;;0.28;62.64;102662.84;4993906;28;19914;-69
2022/12/18 02:27:53;;;;;;;;;;;;;;;0.26;62.82;102658.63;4994712;28;19937;-69
2022/12/18 02:30:19;;;;;;;;;;;;;;;0.26;62.70;102650.66;4994245;28;19945;-71
2022/12/18 02:32:47;;;;;;;;;;;;;;;0.25;62.34;102643.63;4995238;28;19922;-70
2022/12/18 02:35:16;;;;;;;;;;;;;;;0.23;62.72;102649.09;4994726;28;20388;-70
2022/12/18 02:37:43;;;;;;;;;;;;;;;0.24;62.66;102649.94;4993390;28;20347;-70
2022/12/18 02:40:09;;;;;;;;;;;;;;;0.21;62.79;102648.38;4994751;28;19993;-70
2022/12/18 02:42:34;;;;;;;;;;;;;;;0.19;62.75;102637.84;4992902;28;19921;-70
2022/12/18 02:44:59;;;;;;;;;;;;;;;0.18;62.64;102633.53;4994825;28;19921;-70
2022/12/18 02:47:28;;;;;;;;;;;;;;;0.18;62.64;102638.00;4994775;28;19924;-70
2022/12/18 02:49:56;;;;;;;;;;;;;;;0.18;62.39;102630.03;4994992;28;20085;-71
2022/12/18 02:52:28;;;;;;;;;;;;;;;0.16;62.56;102622.16;4994527;28;20004;-71
2022/12/18 02:55:12;;;;;;;;;;;;;;;0.15;62.32;102617.84;4993352;28;19917;-70
2022/12/18 02:57:58;;;;;;;;;;;;;;;0.14;62.46;102628.59;4994796;28;19967;-72
2022/12/18 03:00:28;;;;;;;;;;;;;;;0.14;62.27;102636.56;4995025;28;19914;-69
2022/12/18 03:02:58;;;;;;;;;;;;;;;0.11;62.42;102632.34;4994843;28;20385;-69
2022/12/18 03:05:43;;;;;;;;;;;;;;;0.11;62.44;102620.88;4995047;28;19918;-69
2022/12/18 03:08:17;;;;;;;;;;;;;;;0.08;62.47;102619.31;4994323;28;19920;-70
2022/12/18 03:10:49;;;;;;;;;;;;;;;0.08;62.43;102605.19;4994673;28;19914;-71
2022/12/18 03:13:33;;;;;;;;;;;;;;;0.06;62.36;102604.47;4993334;28;20374;-69
2022/12/18 03:16:00;;;;;;;;;;;;;;;0.05;62.42;102605.44;4994296;28;19967;-69
2022/12/18 03:18:29;;;;;;;;;;;;;;;0.04;62.21;102612.56;4994274;28;20389;-70
2022/12/18 03:20:55;;;;;;;;;;;;;;;0.03;62.12;102616.19;4992931;28;20362;-70
2022/12/18 03:23:22;;;;;;;;;;;;;;;0.03;62.22;102615.38;4994247;28;19918;-70
2022/12/18 03:25:51;;;;;;;;;;;;;;;0.03;62.17;102623.34;4994244;28;19913;-70
2022/12/18 03:28:20;;;;;;;;;;;;;;;0.01;62.27;102633.25;4993986;28;19949;-70
2022/12/18 03:30:47;;;;;;;;;;;;;;;-0.01;62.24;102628.88;4994591;28;20270;-70
2022/12/18 03:33:23;;;;;;;;;;;;;;;-0.02;62.04;102631.69;4992806;28;20291;-70
2022/12/18 03:35:49;;;;;;;;;;;;;;;-0.04;62.09;102623.81;4994424;28;20373;-69
2022/12/18 03:38:14;;;;;;;;;;;;;;;-0.05;62.10;102627.47;4993099;28;19981;-69
2022/12/18 03:40:43;;;;;;;;;;;;;;;-0.06;61.97;102616.94;4993807;28;20433;-69
2022/12/18 03:43:10;;;;;;;;;;;;;;;-0.07;61.91;102609.97;4994072;28;19914;-69
2022/12/18 03:45:37;;;;;;;;;;;;;;;-0.07;62.00;102602.00;4993043;28;19918;-69
2022/12/18 03:48:26;;;;;;;;;;;;;;;-0.09;62.21;102596.78;4992922;28;19914;-68
2022/12/18 03:51:01;;;;;;;;;;;;;;;-0.10;61.97;102591.59;4993805;28;20012;-69
2022/12/18 03:53:37;;;;;;;;;;;;;;;-0.11;62.02;102593.41;4996524;28;19975;-69
2022/12/18 03:56:03;;;;;;;;;;;;;;;-0.12;61.89;102590.91;4997621;28;19967;-69
2022/12/18 03:58:30;;;;;;;;;;;;;;;-0.14;61.88;102592.84;4997643;28;20019;-70
2022/12/18 04:00:58;;;;;;;;;;;;;;;-0.14;61.92;102582.22;4996332;28;20012;-73
2022/12/18 04:03:24;;;;;;;;;;;;;;;-0.16;61.68;102577.03;4997567;28;19925;-70
2022/12/18 04:05:51;;;;;;;;;;;;;;;-0.17;62.04;102569.19;4997476;28;19914;-70
2022/12/18 04:08:16;;;;;;;;;;;;;;;-0.19;61.78;102561.34;4997396;28;20032;-70
2022/12/18 04:10:41;;;;;;;;;;;;;;;-0.19;61.76;102563.16;4997392;28;19945;-70
2022/12/18 04:13:07;;;;;;;;;;;;;;;-0.21;61.64;102565.94;4997313;28;19914;-70
2022/12/18 04:15:34;;;;;;;;;;;;;;;-0.23;62.01;102563.44;4996279;28;19965;-70
2022/12/18 04:17:59;;;;;;;;;;;;;;;-0.23;61.76;102563.44;4997727;28;19920;-70
2022/12/18 04:20:24;;;;;;;;;;;;;;;-0.24;61.71;102569.69;4997195;28;19918;-70
2022/12/18 04:22:50;;;;;;;;;;;;;;;-0.25;62.03;102572.50;4996283;28;19924;-71
2022/12/18 04:25:15;;;;;;;;;;;;;;;-0.26;61.75;102581.41;4997040;28;20422;-70
2022/12/18 04:27:40;;;;;;;;;;;;;;;-0.27;61.84;102582.38;4995588;28;20208;-70
2022/12/18 04:30:06;;;;;;;;;;;;;;;-0.28;61.94;102591.31;4996765;28;19922;-70
2022/12/18 04:37:41;;;;;;;;;;;;;;;-0.31;61.79;102599.53;5420797;22;19921;-70
2022/12/18 04:40:07;;;;;;;;;;;;;;;-0.31;61.65;102596.88;5009375;28;19921;-72
2022/12/18 04:42:32;;;;;;;;;;;;;;;-0.33;61.59;102602.31;5016437;28;20368;-72
2022/12/18 04:44:57;;;;;;;;;;;;;;;-0.34;61.55;102591.81;5016481;28;20258;-71
2022/12/18 04:47:22;;;;;;;;;;;;;;;-0.34;61.49;102602.44;5015798;28;19964;-70
2022/12/18 04:49:48;;;;;;;;;;;;;;;-0.36;61.76;102599.06;5016604;28;19999;-71
2022/12/18 04:52:13;;;;;;;;;;;;;;;-0.37;61.49;102592.91;5016075;28;20016;-71
2022/12/18 04:54:38;;;;;;;;;;;;;;;-0.39;61.49;102594.00;5016161;28;20304;-71
2022/12/18 04:57:03;;;;;;;;;;;;;;;-0.41;61.61;102594.13;5015078;28;19925;-71
2022/12/18 04:59:29;;;;;;;;;;;;;;;-0.40;61.43;102585.22;5015875;28;19913;-70
2022/12/18 05:01:54;;;;;;;;;;;;;;;-0.41;61.53;102585.31;5016157;28;20364;-71
2022/12/18 05:04:19;;;;;;;;;;;;;;;-0.42;61.49;102578.34;5015439;28;19924;-71
2022/12/18 05:06:45;;;;;;;;;;;;;;;-0.44;61.55;102586.41;5015850;28;19991;-71
2022/12/18 05:09:10;;;;;;;;;;;;;;;-0.47;61.36;102600.78;5014752;28;19917;-71
2022/12/18 05:11:35;;;;;;;;;;;;;;;-0.47;61.39;102605.25;5015566;28;19924;-71
2022/12/18 05:14:00;;;;;;;;;;;;;;;-0.49;61.41;102599.22;5015570;28;19957;-71
2022/12/18 05:16:25;;;;;;;;;;;;;;;-0.49;61.45;102607.19;5015458;28;20316;-70
2022/12/18 05:18:51;;;;;;;;;;;;;;;-0.50;61.54;102603.69;5015505;28;19923;-70
2022/12/18 05:21:16;;;;;;;;;;;;;;;-0.52;61.56;102596.81;5015462;28;19968;-71
2022/12/18 05:23:41;;;;;;;;;;;;;;;-0.53;61.49;102600.41;5015921;28;20325;-72
2022/12/18 05:26:15;;;;;;;;;;;;;;;-0.55;61.30;102594.41;5014931;28;19917;-72
2022/12/18 05:28:40;;;;;;;;;;;;;;;-0.55;61.38;102591.75;5015565;28;20000;-70
2022/12/18 05:31:06;;;;;;;;;;;;;;;-0.56;61.38;102593.56;5015717;28;19957;-71
2022/12/18 05:33:32;;;;;;;;;;;;;;;-0.57;61.41;102593.69;5015304;28;19917;-72
2022/12/18 05:35:58;;;;;;;;;;;;;;;-0.58;61.53;102597.28;5015351;28;19913;-71
2022/12/18 05:38:24;;;;;;;;;;;;;;;-0.59;61.44;102598.28;5015714;28;20341;-70
2022/12/18 05:40:50;;;;;;;;;;;;;;;-0.61;61.57;102594.91;5015324;28;19920;-71
2022/12/18 05:43:16;;;;;;;;;;;;;;;-0.62;61.56;102588.75;5015344;28;19917;-70
2022/12/18 05:45:42;;;;;;;;;;;;;;;-0.64;61.48;102585.38;5014010;28;19913;-72
2022/12/18 05:48:07;;;;;;;;;;;;;;;-0.66;61.37;102572.25;5015154;28;20012;-71
2022/12/18 05:50:36;;;;;;;;;;;;;;;-0.66;61.35;102577.56;5015127;28;19913;-71
2022/12/18 05:53:02;;;;;;;;;;;;;;;-0.67;61.51;102585.63;5015217;28;20007;-71
2022/12/18 05:55:28;;;;;;;;;;;;;;;-0.68;61.18;102589.22;5015040;28;20004;-70
2022/12/18 05:57:53;;;;;;;;;;;;;;;-0.69;61.18;102583.09;5015158;28;20341;-72
2022/12/18 06:00:18;;;;;;;;;;;;;;;-0.70;61.35;102584.06;5014736;28;19985;-71
2022/12/18 06:02:46;;;;;;;;;;;;;;;-0.71;61.34;102589.47;5014909;28;19996;-71
2022/12/18 06:05:11;;;;;;;;;;;;;;;-0.73;61.40;102584.31;5014930;28;19913;-70
2022/12/18 06:07:37;;;;;;;;;;;;;;;-0.74;61.21;102601.19;5014774;28;19971;-70
2022/12/18 06:10:02;;;;;;;;;;;;;;;-0.76;61.26;102581.03;5013806;28;19917;-71
2022/12/18 06:12:27;;;;;;;;;;;;;;;-0.77;61.31;102579.38;5014864;28;19936;-71
2022/12/18 06:14:53;;;;;;;;;;;;;;;-0.77;61.19;102572.25;5014654;28;19913;-71
2022/12/18 06:17:18;;;;;;;;;;;;;;;-0.78;61.40;102581.19;5015021;28;19917;-73
2022/12/18 06:19:43;;;;;;;;;;;;;;;-0.79;61.44;102586.59;5014375;28;19917;-70
2022/12/18 06:22:08;;;;;;;;;;;;;;;-0.80;61.60;102576.97;5014351;28;20075;-72
2022/12/18 06:24:34;;;;;;;;;;;;;;;-0.81;61.23;102570.78;5013101;28;19964;-72
2022/12/18 06:26:59;;;;;;;;;;;;;;;-0.82;61.41;102562.97;5014185;28;19924;-71
2022/12/18 06:29:24;;;;;;;;;;;;;;;-0.83;61.27;102569.22;5014342;28;20325;-71
2022/12/18 06:31:49;;;;;;;;;;;;;;;-0.84;61.18;102573.69;5014481;28;20377;-71
2022/12/18 06:34:14;;;;;;;;;;;;;;;-0.85;61.23;102571.19;5014178;28;19975;-71
2022/12/18 06:36:40;;;;;;;;;;;;;;;-0.87;61.20;102558.03;5012936;28;19921;-71
2022/12/18 06:39:05;;;;;;;;;;;;;;;-0.89;61.23;102544.88;5013961;28;19928;-71
2022/12/18 06:41:30;;;;;;;;;;;;;;;-0.89;61.14;102547.53;5014353;28;19963;-71
2022/12/18 06:43:57;;;;;;;;;;;;;;;-0.91;61.06;102554.78;5014298;28;20004;-71
2022/12/18 06:46:22;;;;;;;;;;;;;;;-0.90;61.03;102555.63;5014294;28;20371;-72
2022/12/18 06:48:49;;;;;;;;;;;;;;;-0.92;61.35;102552.25;5029589;28;19914;-71
2022/12/18 06:51:18;;;;;;;;;;;;;;;-0.93;61.17;102554.06;5014312;28;19936;-72
2022/12/18 06:53:43;;;;;;;;;;;;;;;-0.93;61.19;102553.22;5014382;28;19980;-72
2022/12/18 06:56:08;;;;;;;;;;;;;;;-0.95;61.14;102545.38;5014528;28;20337;-72
2022/12/18 06:58:34;;;;;;;;;;;;;;;-0.95;61.14;102549.84;5014119;28;20284;-70
2022/12/18 07:01:00;;;;;;;;;;;;;;;-0.97;61.26;102541.16;5014179;28;19917;-71
2022/12/18 07:03:25;;;;;;;;;;;;;;;-0.98;61.42;102536.84;5013524;28;19925;-71
2022/12/18 07:05:50;;;;;;;;;;;;;;;-1.00;61.10;102542.25;5014214;28;19913;-71
2022/12/18 07:08:15;;;;;;;;;;;;;;;-1.00;61.19;102546.72;5014016;28;19917;-71
2022/12/18 07:10:42;;;;;;;;;;;;;;;-1.01;60.95;102529.94;5014241;28;19917;-71
2022/12/18 07:13:07;;;;;;;;;;;;;;;-1.02;61.34;102522.97;5012896;28;19960;-71
2022/12/18 07:15:32;;;;;;;;;;;;;;;-1.04;61.23;102514.28;5013600;28;19960;-70
2022/12/18 07:17:58;;;;;;;;;;;;;;;-1.05;61.10;102507.31;5013132;28;19913;-72
2022/12/18 07:20:23;;;;;;;;;;;;;;;-1.06;60.88;102500.28;5014505;28;19917;-72
2022/12/18 07:22:48;;;;;;;;;;;;;;;-1.07;60.96;102503.94;5014201;28;20060;-71
2022/12/18 07:25:14;;;;;;;;;;;;;;;-1.09;61.21;102490.78;5013854;28;19914;-71
2022/12/18 07:27:39;;;;;;;;;;;;;;;-1.10;61.13;102489.09;5016067;28;20024;-71
2022/12/18 07:30:04;;;;;;;;;;;;;;;-1.11;61.05;102486.56;5017866;28;19922;-72
2022/12/18 07:32:30;;;;;;;;;;;;;;;-1.12;61.20;102485.72;5017510;28;19917;-71
2022/12/18 07:34:55;;;;;;;;;;;;;;;-1.13;61.03;102477.91;5017863;28;19925;-71
2022/12/18 07:37:20;;;;;;;;;;;;;;;-1.14;61.46;102471.75;5017613;28;19965;-70
2022/12/18 07:39:46;;;;;;;;;;;;;;;-1.15;61.17;102461.28;5017502;28;19917;-71
2022/12/18 07:45:09;;;;;;;;;;;;;;;-1.17;61.29;102460.56;5016125;28;19918;-72
2022/12/18 07:47:35;;;;;;;;;;;;;;;-1.18;61.10;102458.88;5017331;28;20395;-71
2022/12/18 07:50:01;;;;;;;;;;;;;;;-1.18;61.01;102456.22;5017415;28;19925;-71
2022/12/18 07:52:26;;;;;;;;;;;;;;;-1.19;61.23;102462.47;5017351;28;19913;-73
2022/12/18 07:54:51;;;;;;;;;;;;;;;-1.21;61.07;102464.41;5017248;28;19917;-72
2022/12/18 07:57:19;;;;;;;;;;;;;;;-1.21;61.32;102472.34;5017464;28;20353;-72
2022/12/18 07:59:44;;;;;;;;;;;;;;;-1.21;61.41;102480.31;5017458;28;20353;-70
2022/12/18 08:02:09;;;;;;;;;;;;;;;-1.23;61.09;102469.84;5016876;28;19948;-72
2022/12/18 08:04:35;;;;;;;;;;;;;;;-1.23;61.02;102475.16;5016857;28;20020;-71
2022/12/18 08:07:00;;;;;;;;;;;;;;;-1.25;61.02;102465.63;5016565;28;19917;-71
2022/12/18 08:09:25;;;;;;;;;;;;;;;-1.25;60.93;102473.59;5017318;28;19917;-71
2022/12/18 08:11:50;;;;;;;;;;;;;;;-1.25;61.10;102478.88;5017087;28;19924;-72
2022/12/18 08:14:16;;;;;;;;;;;;;;;-1.26;61.22;102477.19;5016598;28;19913;-70
2022/12/18 08:16:41;;;;;;;;;;;;;;;-1.27;61.13;102478.16;5016826;28;19924;-70
2022/12/18 08:19:06;;;;;;;;;;;;;;;-1.27;61.16;102470.22;5016739;28;19918;-71
2022/12/18 08:21:32;;;;;;;;;;;;;;;-1.28;61.08;102468.53;5016799;28;20380;-71
2022/12/18 08:23:58;;;;;;;;;;;;;;;-1.28;61.05;102471.19;5016788;28;20321;-73
2022/12/18 08:26:25;;;;;;;;;;;;;;;-1.29;61.07;102472.13;5015482;28;20371;-71
2022/12/18 08:28:50;;;;;;;;;;;;;;;-1.30;61.05;102473.94;5016463;28;19913;-71
2022/12/18 08:31:15;;;;;;;;;;;;;;;-1.32;61.13;102476.72;5016320;28;19917;-71
2022/12/18 08:33:41;;;;;;;;;;;;;;;-1.33;61.15;102467.09;5016444;28;19917;-72
2022/12/18 08:36:08;;;;;;;;;;;;;;;-1.33;61.19;102453.81;5015376;28;19914;-70
2022/12/18 08:38:33;;;;;;;;;;;;;;;-1.34;61.45;102448.63;5015517;28;19917;-71
2022/12/18 08:41:03;;;;;;;;;;;;;;;-1.35;61.24;102444.31;5016259;28;19968;-72
2022/12/18 08:46:12;;;;;;;;;;;;;;;-1.36;61.22;102446.13;5015476;28;19983;-71
2022/12/18 08:48:37;;;;;;;;;;;;;;;-1.38;61.17;102445.41;5016166;28;20345;-71
2022/12/18 08:51:03;;;;;;;;;;;;;;;-1.39;61.52;102456.94;5016073;28;19964;-71
2022/12/18 08:53:28;;;;;;;;;;;;;;;-1.37;61.27;102451.53;5016177;28;20364;-71
2022/12/18 08:55:53;;;;;;;;;;;;;;;-1.38;61.21;102453.34;5014874;28;19917;-72
2022/12/18 08:58:19;;;;;;;;;;;;;;;-1.38;61.17;102460.47;5016135;28;19963;-72
2022/12/18 09:00:44;;;;;;;;;;;;;;;-1.37;61.27;102464.78;5015975;28;19913;-69
2022/12/18 09:03:17;;;;;;;;;;;;;;;-1.38;61.26;102474.56;5016037;28;19913;-71
2022/12/18 09:05:42;;;;;;;;;;;;;;;-1.39;61.57;102477.31;5015921;28;19921;-71
2022/12/18 09:08:07;;;;;;;;;;;;;;;-1.39;61.18;102478.16;5015744;28;19914;-71
2022/12/18 09:10:33;;;;;;;;;;;;;;;-1.40;61.47;102471.19;5015860;28;19914;-71
2022/12/18 09:12:58;;;;;;;;;;;;;;;-1.41;61.39;102472.16;5015779;28;20337;-70
2022/12/18 09:15:24;;;;;;;;;;;;;;;-1.40;61.46;102467.69;5015515;28;19918;-70
2022/12/18 09:17:49;;;;;;;;;;;;;;;-1.41;61.31;102453.59;5015934;28;19917;-71
2022/12/18 09:20:15;;;;;;;;;;;;;;;-1.41;61.30;102447.44;5030883;28;19945;-69
2022/12/18 09:22:40;;;;;;;;;;;;;;;-1.41;61.67;102444.78;5015040;28;19936;-70
2022/12/18 09:25:09;;;;;;;;;;;;;;;-1.42;61.59;102451.06;5014260;28;19913;-71
2022/12/18 09:27:35;;;;;;;;;;;;;;;-1.42;61.48;102465.16;5015325;28;20016;-69
2022/12/18 09:30:00;;;;;;;;;;;;;;;-1.41;61.64;102448.31;5015306;28;19952;-71
2022/12/18 09:32:25;;;;;;;;;;;;;;;-1.40;61.78;102443.84;5014317;28;19928;-72
2022/12/18 09:34:50;;;;;;;;;;;;;;;-1.42;61.44;102428.03;5015352;28;19972;-69
2022/12/18 09:37:16;;;;;;;;;;;;;;;-1.41;61.63;102434.19;5014983;28;20329;-70
2022/12/18 09:39:41;;;;;;;;;;;;;;;-1.41;61.43;102434.19;5015252;28;19959;-70
2022/12/18 09:42:11;;;;;;;;;;;;;;;-1.42;61.84;102435.16;5015443;28;19920;-71
2022/12/18 09:44:39;;;;;;;;;;;;;;;-1.42;61.63;102437.81;5015672;28;19917;-70
2022/12/18 09:47:07;;;;;;;;;;;;;;;-1.42;61.56;102438.66;5014802;28;20011;-70
2022/12/18 09:49:35;;;;;;;;;;;;;;;-1.42;61.89;102424.56;5013849;28;19920;-70
2022/12/18 09:52:00;;;;;;;;;;;;;;;-1.44;61.45;102422.03;5015555;28;20007;-71
2022/12/18 09:54:30;;;;;;;;;;;;;;;-1.42;61.54;102432.50;5014946;28;20024;-70
2022/12/18 09:56:56;;;;;;;;;;;;;;;-1.42;61.77;102435.16;5015479;28;19928;-70
2022/12/18 09:59:26;;;;;;;;;;;;;;;-1.43;61.57;102439.63;5015012;28;19917;-70
2022/12/18 10:01:52;;;;;;;;;;;;;;;-1.42;61.81;102436.00;5015305;28;19920;-70
2022/12/18 10:04:17;;;;;;;;;;;;;;;-1.42;61.59;102433.34;5015585;28;19917;-71
2022/12/18 10:06:54;;;;;;;;;;;;;;;-1.41;61.68;102423.59;5015005;28;20364;-70
2022/12/18 10:09:20;;;;;;;;;;;;;;;-1.41;61.69;102428.88;5013632;28;19913;-71
2022/12/18 10:11:52;;;;;;;;;;;;;;;-1.41;61.83;102431.53;5014696;28;19917;-70
2022/12/18 10:14:36;;;;;;;;;;;;;;;-1.40;61.88;102431.41;5014385;28;19921;-72
2022/12/18 10:17:16;;;;;;;;;;;;;;;-1.41;61.67;102436.84;5014856;28;19915;-71
2022/12/18 10:19:53;;;;;;;;;;;;;;;-1.40;61.67;102423.47;5014916;28;19914;-71
2022/12/18 10:22:34;;;;;;;;;;;;;;;-1.40;61.85;102407.56;5014541;28;20360;-70
2022/12/18 10:25:05;;;;;;;;;;;;;;;-1.40;61.78;102396.97;5014449;28;20364;-71
2022/12/18 10:27:30;;;;;;;;;;;;;;;-1.39;62.00;102389.84;5014433;28;19914;-71
2022/12/18 10:29:57;;;;;;;;;;;;;;;-1.39;61.84;102384.53;5014815;28;19978;-70
2022/12/18 10:32:27;;;;;;;;;;;;;;;-1.40;61.96;102375.75;5014898;28;19917;-71
2022/12/18 10:34:53;;;;;;;;;;;;;;;-1.41;61.89;102362.63;5014373;28;19913;-70
2022/12/18 10:37:20;;;;;;;;;;;;;;;-1.39;62.08;102366.81;5014144;28;19967;-72
2022/12/18 10:39:51;;;;;;;;;;;;;;;-1.38;62.08;102367.69;5029451;28;19961;-70
2022/12/18 10:42:18;;;;;;;;;;;;;;;-1.38;61.95;102365.88;5015014;28;19943;-70
2022/12/18 10:44:43;;;;;;;;;;;;;;;-1.37;62.06;102362.25;5014251;28;19917;-70
2022/12/18 10:47:12;;;;;;;;;;;;;;;-1.37;62.08;102364.91;5013650;28;20376;-70
2022/12/18 10:49:40;;;;;;;;;;;;;;;-1.37;62.13;102354.28;5014129;28;19913;-72
2022/12/18 10:52:05;;;;;;;;;;;;;;;-1.36;62.17;102363.94;5014340;28;19917;-70
2022/12/18 10:54:32;;;;;;;;;;;;;;;-1.36;61.86;102356.00;5014704;28;19982;-71
2022/12/18 10:57:26;;;;;;;;;;;;;;;-1.34;62.21;102358.50;5014278;28;19917;-71
2022/12/18 10:59:54;;;;;;;;;;;;;;;-1.34;61.90;102356.69;5005444;28;19913;-70
2022/12/18 11:02:25;;;;;;;;;;;;;;;-1.33;62.06;102362.88;5013587;28;19913;-69
2022/12/18 11:04:51;;;;;;;;;;;;;;;-1.33;62.04;102355.75;5013973;28;19929;-71
2022/12/18 11:07:16;;;;;;;;;;;;;;;-1.32;62.09;102354.75;5014458;28;19910;-73
2022/12/18 11:09:42;;;;;;;;;;;;;;;-1.33;62.28;102353.09;5013988;28;20136;-72
2022/12/18 11:12:10;;;;;;;;;;;;;;;-1.31;62.05;102348.50;5013637;28;20368;-71
2022/12/18 11:14:35;;;;;;;;;;;;;;;-1.29;62.16;102352.84;5013696;28;20428;-69
2022/12/18 11:17:00;;;;;;;;;;;;;;;-1.27;62.28;102335.00;5013043;28;19952;-72
2022/12/18 11:19:32;;;;;;;;;;;;;;;-1.26;62.08;102326.06;5013628;28;20326;-71
2022/12/18 11:21:57;;;;;;;;;;;;;;;-1.25;62.08;102327.78;5013654;28;20008;-70
2022/12/18 11:24:29;;;;;;;;;;;;;;;-1.25;62.01;102331.25;5013324;28;19960;-71
2022/12/18 11:26:54;;;;;;;;;;;;;;;-1.23;62.26;102339.09;5013000;28;19920;-71
2022/12/18 11:29:26;;;;;;;;;;;;;;;-1.22;62.38;102338.13;5013361;28;19913;-71
2022/12/18 11:32:12;;;;;;;;;;;;;;;-1.22;62.19;102333.66;5012668;28;19913;-69
2022/12/18 11:34:37;;;;;;;;;;;;;;;-1.22;62.41;102331.00;5013122;28;19940;-72
2022/12/18 11:37:03;;;;;;;;;;;;;;;-1.21;62.58;102329.19;5012933;28;20364;-72
2022/12/18 11:39:45;;;;;;;;;;;;;;;-1.21;62.38;102323.88;5013401;28;19913;-70
2022/12/18 11:42:25;;;;;;;;;;;;;;;-1.19;62.33;102327.25;5013976;28;20324;-73
2022/12/18 11:45:09;;;;;;;;;;;;;;;-1.18;62.19;102316.53;5013490;28;19914;-72
2022/12/18 11:47:42;;;;;;;;;;;;;;;-1.17;62.51;102315.56;5012991;28;19950;-72
2022/12/18 11:50:15;;;;;;;;;;;;;;;-1.16;62.27;102311.94;5013373;28;19913;-71
2022/12/18 11:52:41;;;;;;;;;;;;;;;-1.15;62.36;102302.19;5013236;28;19913;-70
2022/12/18 11:55:15;;;;;;;;;;;;;;;-1.14;62.34;102299.38;5011444;28;19945;-71
2022/12/18 11:57:40;;;;;;;;;;;;;;;-1.13;62.40;102297.59;5011718;28;19913;-70
2022/12/18 12:00:15;;;;;;;;;;;;;;;-1.11;62.29;102290.31;5013023;28;19918;-70
2022/12/18 12:02:59;;;;;;;;;;;;;;;-1.09;62.40;102294.53;5012900;28;19914;-71
2022/12/18 12:05:40;;;;;;;;;;;;;;;-1.09;62.63;102283.91;5013174;28;19918;-70
2022/12/18 12:08:11;;;;;;;;;;;;;;;-1.08;62.49;102274.19;5013576;28;19913;-71
2022/12/18 12:10:48;;;;;;;;;;;;;;;-1.07;62.48;102273.19;5012997;28;19921;-73
2022/12/18 12:13:16;;;;;;;;;;;;;;;-1.05;62.44;102267.78;5013813;28;20328;-73
2022/12/18 12:15:52;;;;;;;;;;;;;;;-1.05;62.44;102267.78;5016590;28;20016;-71
2022/12/18 12:18:24;;;;;;;;;;;;;;;-1.05;62.65;102270.44;5015588;28;20011;-72
2022/12/18 12:20:52;;;;;;;;;;;;;;;-1.04;62.50;102253.53;5016576;28;20012;-71
2022/12/18 12:23:53;;;;;;;;;;;;;;;-1.03;62.51;102250.75;5016419;28;19913;-72
2022/12/18 12:26:31;;;;;;;;;;;;;;;-1.02;62.62;102248.94;4975139;28;19914;-72
2022/12/18 12:29:10;;;;;;;;;;;;;;;-1.02;62.71;102239.19;5012048;28;19917;-71
2022/12/18 12:31:47;;;;;;;;;;;;;;;-1.00;62.62;102244.34;5015609;28;20055;-71
2022/12/18 12:34:12;;;;;;;;;;;;;;;-0.99;62.97;102235.41;5016416;28;19914;-71
2022/12/18 12:36:46;;;;;;;;;;;;;;;-0.98;62.70;102230.00;5016650;28;19920;-72
2022/12/18 12:39:15;;;;;;;;;;;;;;;-0.97;62.75;102234.31;5016758;28;20357;-72
2022/12/18 12:44:32;;;;;;;;;;;;;;;-0.94;62.75;102227.91;5016476;28;20128;-72
2022/12/18 12:47:00;;;;;;;;;;;;;;;-0.94;62.74;102223.44;5016070;28;20381;-72
2022/12/18 12:49:27;;;;;;;;;;;;;;;-0.92;62.69;102221.50;5015977;28;19996;-71
2022/12/18 12:51:56;;;;;;;;;;;;;;;-0.91;62.68;102217.03;5016259;28;19921;-72
2022/12/18 12:54:24;;;;;;;;;;;;;;;-0.90;62.68;102219.56;5015884;28;20420;-72
2022/12/18 12:57:02;;;;;;;;;;;;;;;-0.89;63.02;102220.41;5015837;28;19921;-71
2022/12/18 12:59:45;;;;;;;;;;;;;;;-0.88;62.62;102214.97;5015826;28;19914;-68